sensor_id;sensor_type;location;lat;lon;timestamp;P1;durP1;ratioP1;P2;durP2;ratioP2
14766;SDS011;7475;53.558;9.970;2023-08-20T00:00:00;16.23;;;7.75;;
14766;SDS011;7475;53.558;9.970;2023-08-20T00:02:25;18.48;;;8.43;;
14766;SDS011;7475;53.558;9.970;2023-08-20T00:04:51;16.17;;;7.68;;
14766;SDS011;7475;53.558;9.970;2023-08-20T00:07:18;15.23;;;7.53;;
14766;SDS011;7475;53.558;9.970;2023-08-20T00:09:43;19.80;;;7.78;;
14766;SDS011;7475;53.558;9.970;2023-08-20T00:12:08;17.85;;;8.40;;
14766;SDS011;7475;53.558;9.970;2023-08-20T00:14:52;16.83;;;7.37;;
14766;SDS011;7475;53.558;9.970;2023-08-20T00:17:19;14.93;;;7.40;;
14766;SDS011;7475;53.558;9.970;2023-08-20T00:19:44;16.60;;;8.15;;
14766;SDS011;7475;53.558;9.970;2023-08-20T00:22:10;17.20;;;7.70;;
14766;SDS011;7475;53.558;9.970;2023-08-20T00:24:35;11.70;;;7.43;;
14766;SDS011;7475;53.558;9.970;2023-08-20T00:27:00;16.58;;;8.73;;
14766;SDS011;7475;53.558;9.970;2023-08-20T00:29:26;15.30;;;8.17;;
14766;SDS011;7475;53.558;9.970;2023-08-20T00:31:51;16.97;;;8.40;;
14766;SDS011;7475;53.558;9.970;2023-08-20T00:34:16;14.30;;;8.50;;
14766;SDS011;7475;53.558;9.970;2023-08-20T00:36:41;18.37;;;8.33;;
14766;SDS011;7475;53.558;9.970;2023-08-20T00:39:06;18.30;;;9.07;;
14766;SDS011;7475;53.558;9.970;2023-08-20T00:41:32;19.58;;;9.45;;
14766;SDS011;7475;53.558;9.970;2023-08-20T00:43:57;16.10;;;8.70;;
14766;SDS011;7475;53.558;9.970;2023-08-20T00:46:22;28.40;;;15.83;;
14766;SDS011;7475;53.558;9.970;2023-08-20T00:48:48;20.37;;;9.70;;
14766;SDS011;7475;53.558;9.970;2023-08-20T00:51:13;19.98;;;9.40;;
14766;SDS011;7475;53.558;9.970;2023-08-20T00:53:38;23.13;;;9.20;;
14766;SDS011;7475;53.558;9.970;2023-08-20T00:56:03;17.60;;;9.67;;
14766;SDS011;7475;53.558;9.970;2023-08-20T00:58:28;18.92;;;9.45;;
14766;SDS011;7475;53.558;9.970;2023-08-20T01:00:54;19.65;;;10.35;;
14766;SDS011;7475;53.558;9.970;2023-08-20T01:03:19;21.60;;;9.53;;
14766;SDS011;7475;53.558;9.970;2023-08-20T01:05:46;18.37;;;10.43;;
14766;SDS011;7475;53.558;9.970;2023-08-20T01:08:21;20.13;;;9.65;;
14766;SDS011;7475;53.558;9.970;2023-08-20T01:10:56;16.65;;;9.18;;
14766;SDS011;7475;53.558;9.970;2023-08-20T01:13:22;14.68;;;8.98;;
14766;SDS011;7475;53.558;9.970;2023-08-20T01:15:48;18.55;;;9.48;;
14766;SDS011;7475;53.558;9.970;2023-08-20T01:18:13;16.08;;;8.95;;
14766;SDS011;7475;53.558;9.970;2023-08-20T01:20:39;17.90;;;9.43;;
14766;SDS011;7475;53.558;9.970;2023-08-20T01:30:43;20.60;;;10.65;;
14766;SDS011;7475;53.558;9.970;2023-08-20T01:33:09;22.90;;;10.80;;
14766;SDS011;7475;53.558;9.970;2023-08-20T01:35:36;25.55;;;10.65;;
14766;SDS011;7475;53.558;9.970;2023-08-20T01:38:01;21.08;;;11.07;;
14766;SDS011;7475;53.558;9.970;2023-08-20T01:40:26;21.05;;;10.93;;
14766;SDS011;7475;53.558;9.970;2023-08-20T01:42:51;27.77;;;11.63;;
14766;SDS011;7475;53.558;9.970;2023-08-20T01:45:16;20.17;;;11.38;;
14766;SDS011;7475;53.558;9.970;2023-08-20T01:47:43;26.33;;;10.90;;
14766;SDS011;7475;53.558;9.970;2023-08-20T01:50:08;25.90;;;11.40;;
14766;SDS011;7475;53.558;9.970;2023-08-20T01:52:34;23.27;;;11.27;;
14766;SDS011;7475;53.558;9.970;2023-08-20T01:54:59;19.30;;;11.02;;
14766;SDS011;7475;53.558;9.970;2023-08-20T01:57:25;25.70;;;11.77;;
14766;SDS011;7475;53.558;9.970;2023-08-20T01:59:50;21.80;;;11.50;;
14766;SDS011;7475;53.558;9.970;2023-08-20T02:02:15;24.95;;;11.77;;
14766;SDS011;7475;53.558;9.970;2023-08-20T02:04:40;20.35;;;11.35;;
14766;SDS011;7475;53.558;9.970;2023-08-20T02:07:05;20.60;;;11.23;;
14766;SDS011;7475;53.558;9.970;2023-08-20T02:09:31;21.07;;;11.50;;
14766;SDS011;7475;53.558;9.970;2023-08-20T02:11:56;20.58;;;10.98;;
14766;SDS011;7475;53.558;9.970;2023-08-20T02:14:21;20.10;;;11.73;;
14766;SDS011;7475;53.558;9.970;2023-08-20T02:16:47;20.98;;;11.82;;
14766;SDS011;7475;53.558;9.970;2023-08-20T02:19:12;18.42;;;10.70;;
14766;SDS011;7475;53.558;9.970;2023-08-20T02:21:39;23.67;;;11.27;;
14766;SDS011;7475;53.558;9.970;2023-08-20T02:24:04;22.83;;;12.30;;
14766;SDS011;7475;53.558;9.970;2023-08-20T02:26:29;23.70;;;12.63;;
14766;SDS011;7475;53.558;9.970;2023-08-20T02:28:54;22.80;;;12.77;;
14766;SDS011;7475;53.558;9.970;2023-08-20T02:31:20;24.45;;;13.50;;
14766;SDS011;7475;53.558;9.970;2023-08-20T02:33:45;21.33;;;13.93;;
14766;SDS011;7475;53.558;9.970;2023-08-20T02:36:10;24.20;;;14.30;;
14766;SDS011;7475;53.558;9.970;2023-08-20T02:38:36;26.25;;;15.02;;
14766;SDS011;7475;53.558;9.970;2023-08-20T02:41:01;21.17;;;13.38;;
14766;SDS011;7475;53.558;9.970;2023-08-20T02:43:28;24.77;;;15.13;;
14766;SDS011;7475;53.558;9.970;2023-08-20T02:45:53;25.33;;;15.10;;
14766;SDS011;7475;53.558;9.970;2023-08-20T02:48:18;29.80;;;15.82;;
14766;SDS011;7475;53.558;9.970;2023-08-20T02:50:44;27.42;;;15.63;;
14766;SDS011;7475;53.558;9.970;2023-08-20T02:53:09;26.73;;;15.20;;
14766;SDS011;7475;53.558;9.970;2023-08-20T02:55:35;27.80;;;16.05;;
14766;SDS011;7475;53.558;9.970;2023-08-20T02:58:00;26.48;;;16.17;;
14766;SDS011;7475;53.558;9.970;2023-08-20T03:00:26;29.48;;;16.98;;
14766;SDS011;7475;53.558;9.970;2023-08-20T03:02:51;23.55;;;16.02;;
14766;SDS011;7475;53.558;9.970;2023-08-20T03:05:16;20.90;;;14.73;;
14766;SDS011;7475;53.558;9.970;2023-08-20T03:07:41;32.50;;;18.35;;
14766;SDS011;7475;53.558;9.970;2023-08-20T03:10:06;25.40;;;17.10;;
14766;SDS011;7475;53.558;9.970;2023-08-20T03:12:32;25.70;;;17.08;;
14766;SDS011;7475;53.558;9.970;2023-08-20T03:14:59;29.25;;;17.65;;
14766;SDS011;7475;53.558;9.970;2023-08-20T03:17:24;28.85;;;16.95;;
14766;SDS011;7475;53.558;9.970;2023-08-20T03:19:54;37.58;;;18.30;;
14766;SDS011;7475;53.558;9.970;2023-08-20T03:22:20;57.85;;;19.42;;
14766;SDS011;7475;53.558;9.970;2023-08-20T03:24:45;84.20;;;21.80;;
14766;SDS011;7475;53.558;9.970;2023-08-20T03:27:10;311.20;;;27.27;;
14766;SDS011;7475;53.558;9.970;2023-08-20T03:29:35;308.47;;;31.47;;
14766;SDS011;7475;53.558;9.970;2023-08-20T03:32:01;239.67;;;31.27;;
14766;SDS011;7475;53.558;9.970;2023-08-20T03:34:26;228.80;;;33.47;;
14766;SDS011;7475;53.558;9.970;2023-08-20T03:36:51;212.68;;;35.45;;
14766;SDS011;7475;53.558;9.970;2023-08-20T03:39:16;99.40;;;32.50;;
14766;SDS011;7475;53.558;9.970;2023-08-20T03:41:41;98.67;;;32.07;;
14766;SDS011;7475;53.558;9.970;2023-08-20T03:44:07;52.45;;;28.02;;
14766;SDS011;7475;53.558;9.970;2023-08-20T03:46:32;131.27;;;28.70;;
14766;SDS011;7475;53.558;9.970;2023-08-20T03:48:57;103.82;;;31.50;;
14766;SDS011;7475;53.558;9.970;2023-08-20T03:51:22;66.13;;;28.57;;
14766;SDS011;7475;53.558;9.970;2023-08-20T03:53:47;145.53;;;33.67;;
14766;SDS011;7475;53.558;9.970;2023-08-20T03:56:12;66.47;;;28.90;;
14766;SDS011;7475;53.558;9.970;2023-08-20T03:58:38;62.70;;;28.37;;
14766;SDS011;7475;53.558;9.970;2023-08-20T04:01:03;163.68;;;28.63;;
14766;SDS011;7475;53.558;9.970;2023-08-20T04:03:29;92.37;;;27.03;;
14766;SDS011;7475;53.558;9.970;2023-08-20T04:05:54;58.75;;;24.88;;
14766;SDS011;7475;53.558;9.970;2023-08-20T04:08:19;80.05;;;25.08;;
14766;SDS011;7475;53.558;9.970;2023-08-20T04:10:44;83.77;;;22.03;;
14766;SDS011;7475;53.558;9.970;2023-08-20T04:13:10;91.90;;;24.05;;
14766;SDS011;7475;53.558;9.970;2023-08-20T04:15:36;72.00;;;22.92;;
14766;SDS011;7475;53.558;9.970;2023-08-20T04:18:01;200.57;;;22.83;;
14766;SDS011;7475;53.558;9.970;2023-08-20T04:20:27;246.13;;;23.83;;
14766;SDS011;7475;53.558;9.970;2023-08-20T04:22:52;271.02;;;25.90;;
14766;SDS011;7475;53.558;9.970;2023-08-20T04:25:17;240.33;;;27.63;;
14766;SDS011;7475;53.558;9.970;2023-08-20T04:27:42;191.40;;;26.33;;
14766;SDS011;7475;53.558;9.970;2023-08-20T04:30:08;90.40;;;23.70;;
14766;SDS011;7475;53.558;9.970;2023-08-20T04:32:33;196.70;;;25.00;;
14766;SDS011;7475;53.558;9.970;2023-08-20T04:34:59;134.63;;;26.65;;
14766;SDS011;7475;53.558;9.970;2023-08-20T04:37:24;86.32;;;21.67;;
14766;SDS011;7475;53.558;9.970;2023-08-20T04:39:49;209.32;;;23.60;;
14766;SDS011;7475;53.558;9.970;2023-08-20T04:42:15;119.57;;;22.92;;
14766;SDS011;7475;53.558;9.970;2023-08-20T04:44:40;168.97;;;22.00;;
14766;SDS011;7475;53.558;9.970;2023-08-20T04:47:05;159.37;;;24.47;;
14766;SDS011;7475;53.558;9.970;2023-08-20T04:49:30;252.52;;;23.52;;
14766;SDS011;7475;53.558;9.970;2023-08-20T04:51:55;267.70;;;23.48;;
14766;SDS011;7475;53.558;9.970;2023-08-20T04:54:21;281.30;;;23.92;;
14766;SDS011;7475;53.558;9.970;2023-08-20T04:56:46;177.38;;;20.65;;
14766;SDS011;7475;53.558;9.970;2023-08-20T04:59:11;222.67;;;22.17;;
14766;SDS011;7475;53.558;9.970;2023-08-20T05:01:37;158.48;;;22.00;;
14766;SDS011;7475;53.558;9.970;2023-08-20T05:04:02;60.90;;;20.23;;
14766;SDS011;7475;53.558;9.970;2023-08-20T05:06:28;107.72;;;24.90;;
14766;SDS011;7475;53.558;9.970;2023-08-20T05:08:53;73.50;;;20.45;;
14766;SDS011;7475;53.558;9.970;2023-08-20T05:11:18;55.10;;;18.47;;
14766;SDS011;7475;53.558;9.970;2023-08-20T05:13:45;38.63;;;19.00;;
14766;SDS011;7475;53.558;9.970;2023-08-20T05:16:10;74.20;;;23.67;;
14766;SDS011;7475;53.558;9.970;2023-08-20T05:18:35;112.27;;;29.07;;
14766;SDS011;7475;53.558;9.970;2023-08-20T05:21:00;118.17;;;25.67;;
14766;SDS011;7475;53.558;9.970;2023-08-20T05:23:25;198.30;;;22.53;;
14766;SDS011;7475;53.558;9.970;2023-08-20T05:25:51;139.30;;;21.63;;
14766;SDS011;7475;53.558;9.970;2023-08-20T05:28:16;319.80;;;25.52;;
14766;SDS011;7475;53.558;9.970;2023-08-20T05:30:41;152.95;;;24.35;;
14766;SDS011;7475;53.558;9.970;2023-08-20T05:33:06;92.27;;;26.17;;
14766;SDS011;7475;53.558;9.970;2023-08-20T05:35:32;48.05;;;24.90;;
14766;SDS011;7475;53.558;9.970;2023-08-20T05:37:57;85.55;;;26.77;;
14766;SDS011;7475;53.558;9.970;2023-08-20T05:40:22;71.03;;;24.60;;
14766;SDS011;7475;53.558;9.970;2023-08-20T05:42:47;44.85;;;25.58;;
14766;SDS011;7475;53.558;9.970;2023-08-20T05:45:12;223.57;;;26.73;;
14766;SDS011;7475;53.558;9.970;2023-08-20T05:47:38;140.23;;;24.73;;
14766;SDS011;7475;53.558;9.970;2023-08-20T05:50:03;105.53;;;25.43;;
14766;SDS011;7475;53.558;9.970;2023-08-20T05:52:28;82.78;;;23.95;;
14766;SDS011;7475;53.558;9.970;2023-08-20T05:54:53;96.95;;;26.42;;
14766;SDS011;7475;53.558;9.970;2023-08-20T05:57:19;89.75;;;26.05;;
14766;SDS011;7475;53.558;9.970;2023-08-20T05:59:44;51.00;;;25.75;;
14766;SDS011;7475;53.558;9.970;2023-08-20T06:02:09;45.55;;;24.33;;
14766;SDS011;7475;53.558;9.970;2023-08-20T06:04:34;44.83;;;24.20;;
14766;SDS011;7475;53.558;9.970;2023-08-20T06:07:00;46.63;;;25.30;;
14766;SDS011;7475;53.558;9.970;2023-08-20T06:09:25;48.50;;;24.45;;
14766;SDS011;7475;53.558;9.970;2023-08-20T06:11:50;42.60;;;23.65;;
14766;SDS011;7475;53.558;9.970;2023-08-20T06:14:16;36.60;;;22.45;;
14766;SDS011;7475;53.558;9.970;2023-08-20T06:16:41;39.88;;;22.30;;
14766;SDS011;7475;53.558;9.970;2023-08-20T06:19:06;34.08;;;21.42;;
14766;SDS011;7475;53.558;9.970;2023-08-20T06:21:32;32.75;;;20.02;;
14766;SDS011;7475;53.558;9.970;2023-08-20T06:23:57;32.38;;;19.80;;
14766;SDS011;7475;53.558;9.970;2023-08-20T06:26:22;27.58;;;20.05;;
14766;SDS011;7475;53.558;9.970;2023-08-20T06:28:48;25.97;;;18.33;;
14766;SDS011;7475;53.558;9.970;2023-08-20T06:31:13;33.10;;;19.27;;
14766;SDS011;7475;53.558;9.970;2023-08-20T06:33:38;24.88;;;17.35;;
14766;SDS011;7475;53.558;9.970;2023-08-20T06:36:03;24.27;;;17.70;;
14766;SDS011;7475;53.558;9.970;2023-08-20T06:38:28;25.63;;;18.25;;
14766;SDS011;7475;53.558;9.970;2023-08-20T06:40:54;21.70;;;17.20;;
14766;SDS011;7475;53.558;9.970;2023-08-20T06:43:19;21.75;;;17.48;;
14766;SDS011;7475;53.558;9.970;2023-08-20T06:45:44;24.42;;;18.27;;
14766;SDS011;7475;53.558;9.970;2023-08-20T06:48:09;20.47;;;17.60;;
14766;SDS011;7475;53.558;9.970;2023-08-20T06:50:34;24.13;;;18.27;;
14766;SDS011;7475;53.558;9.970;2023-08-20T06:53:00;21.60;;;16.33;;
14766;SDS011;7475;53.558;9.970;2023-08-20T06:55:25;20.83;;;16.70;;
14766;SDS011;7475;53.558;9.970;2023-08-20T06:57:50;19.80;;;15.93;;
14766;SDS011;7475;53.558;9.970;2023-08-20T07:00:15;19.87;;;15.33;;
14766;SDS011;7475;53.558;9.970;2023-08-20T07:02:41;17.88;;;14.82;;
14766;SDS011;7475;53.558;9.970;2023-08-20T07:05:06;15.90;;;14.23;;
14766;SDS011;7475;53.558;9.970;2023-08-20T07:07:34;15.32;;;12.80;;
14766;SDS011;7475;53.558;9.970;2023-08-20T07:09:59;19.67;;;13.80;;
14766;SDS011;7475;53.558;9.970;2023-08-20T07:12:24;14.45;;;11.95;;
14766;SDS011;7475;53.558;9.970;2023-08-20T07:14:50;17.30;;;13.10;;
14766;SDS011;7475;53.558;9.970;2023-08-20T07:17:15;15.10;;;12.30;;
14766;SDS011;7475;53.558;9.970;2023-08-20T07:19:40;13.00;;;11.23;;
14766;SDS011;7475;53.558;9.970;2023-08-20T07:22:05;24.23;;;17.17;;
14766;SDS011;7475;53.558;9.970;2023-08-20T07:24:30;21.75;;;19.30;;
14766;SDS011;7475;53.558;9.970;2023-08-20T07:26:59;16.50;;;13.60;;
14766;SDS011;7475;53.558;9.970;2023-08-20T07:29:26;14.32;;;11.88;;
14766;SDS011;7475;53.558;9.970;2023-08-20T07:31:54;12.05;;;10.25;;
14766;SDS011;7475;53.558;9.970;2023-08-20T07:34:20;12.95;;;9.00;;
14766;SDS011;7475;53.558;9.970;2023-08-20T07:36:45;10.10;;;7.75;;
14766;SDS011;7475;53.558;9.970;2023-08-20T07:39:12;10.63;;;7.97;;
14766;SDS011;7475;53.558;9.970;2023-08-20T07:41:37;10.27;;;7.70;;
14766;SDS011;7475;53.558;9.970;2023-08-20T07:44:02;11.38;;;6.63;;
14766;SDS011;7475;53.558;9.970;2023-08-20T07:46:27;11.23;;;6.88;;
14766;SDS011;7475;53.558;9.970;2023-08-20T07:48:53;10.00;;;6.35;;
14766;SDS011;7475;53.558;9.970;2023-08-20T07:51:18;8.65;;;5.90;;
14766;SDS011;7475;53.558;9.970;2023-08-20T07:53:43;8.03;;;5.53;;
14766;SDS011;7475;53.558;9.970;2023-08-20T07:56:09;7.07;;;5.33;;
14766;SDS011;7475;53.558;9.970;2023-08-20T07:58:34;6.22;;;5.10;;
14766;SDS011;7475;53.558;9.970;2023-08-20T08:00:59;7.25;;;5.32;;
14766;SDS011;7475;53.558;9.970;2023-08-20T08:03:25;9.47;;;5.37;;
14766;SDS011;7475;53.558;9.970;2023-08-20T08:05:51;7.78;;;4.13;;
14766;SDS011;7475;53.558;9.970;2023-08-20T08:08:18;6.30;;;4.30;;
14766;SDS011;7475;53.558;9.970;2023-08-20T08:10:43;8.27;;;4.43;;
14766;SDS011;7475;53.558;9.970;2023-08-20T08:13:11;4.70;;;3.95;;
14766;SDS011;7475;53.558;9.970;2023-08-20T08:15:37;6.28;;;3.97;;
14766;SDS011;7475;53.558;9.970;2023-08-20T08:18:02;5.78;;;4.05;;
14766;SDS011;7475;53.558;9.970;2023-08-20T08:20:28;7.65;;;3.88;;
14766;SDS011;7475;53.558;9.970;2023-08-20T08:22:53;5.10;;;3.50;;
14766;SDS011;7475;53.558;9.970;2023-08-20T08:25:18;6.80;;;3.33;;
14766;SDS011;7475;53.558;9.970;2023-08-20T08:27:44;5.60;;;3.20;;
14766;SDS011;7475;53.558;9.970;2023-08-20T08:30:09;5.75;;;2.63;;
14766;SDS011;7475;53.558;9.970;2023-08-20T08:32:35;6.28;;;2.65;;
14766;SDS011;7475;53.558;9.970;2023-08-20T08:35:00;6.07;;;2.40;;
14766;SDS011;7475;53.558;9.970;2023-08-20T08:37:25;5.30;;;2.67;;
14766;SDS011;7475;53.558;9.970;2023-08-20T08:39:50;4.67;;;2.20;;
14766;SDS011;7475;53.558;9.970;2023-08-20T08:42:15;3.33;;;2.10;;
14766;SDS011;7475;53.558;9.970;2023-08-20T08:44:41;5.00;;;2.70;;
14766;SDS011;7475;53.558;9.970;2023-08-20T08:47:06;3.28;;;2.22;;
14766;SDS011;7475;53.558;9.970;2023-08-20T08:49:35;4.07;;;2.70;;
14766;SDS011;7475;53.558;9.970;2023-08-20T08:52:00;4.15;;;2.33;;
14766;SDS011;7475;53.558;9.970;2023-08-20T08:54:26;3.08;;;2.17;;
14766;SDS011;7475;53.558;9.970;2023-08-20T08:56:51;4.60;;;2.30;;
14766;SDS011;7475;53.558;9.970;2023-08-20T08:59:17;5.30;;;2.22;;
14766;SDS011;7475;53.558;9.970;2023-08-20T09:01:42;3.45;;;1.80;;
14766;SDS011;7475;53.558;9.970;2023-08-20T09:04:07;5.72;;;2.50;;
14766;SDS011;7475;53.558;9.970;2023-08-20T09:06:48;4.22;;;2.22;;
14766;SDS011;7475;53.558;9.970;2023-08-20T09:09:14;5.28;;;2.65;;
14766;SDS011;7475;53.558;9.970;2023-08-20T09:11:39;6.25;;;2.30;;
14766;SDS011;7475;53.558;9.970;2023-08-20T09:14:04;6.45;;;2.30;;
14766;SDS011;7475;53.558;9.970;2023-08-20T09:16:30;4.93;;;2.20;;
14766;SDS011;7475;53.558;9.970;2023-08-20T09:18:57;6.47;;;3.30;;
14766;SDS011;7475;53.558;9.970;2023-08-20T09:21:26;6.40;;;2.42;;
14766;SDS011;7475;53.558;9.970;2023-08-20T09:23:53;5.85;;;2.30;;
14766;SDS011;7475;53.558;9.970;2023-08-20T09:26:18;5.65;;;2.35;;
14766;SDS011;7475;53.558;9.970;2023-08-20T09:28:45;4.60;;;2.07;;
14766;SDS011;7475;53.558;9.970;2023-08-20T09:31:10;4.63;;;2.30;;
14766;SDS011;7475;53.558;9.970;2023-08-20T09:33:36;7.70;;;2.67;;
14766;SDS011;7475;53.558;9.970;2023-08-20T09:36:02;3.83;;;2.38;;
14766;SDS011;7475;53.558;9.970;2023-08-20T09:38:28;4.38;;;2.30;;
14766;SDS011;7475;53.558;9.970;2023-08-20T09:40:53;4.30;;;2.03;;
14766;SDS011;7475;53.558;9.970;2023-08-20T09:43:21;4.88;;;2.58;;
14766;SDS011;7475;53.558;9.970;2023-08-20T09:45:48;6.00;;;2.50;;
14766;SDS011;7475;53.558;9.970;2023-08-20T09:48:20;4.45;;;2.38;;
14766;SDS011;7475;53.558;9.970;2023-08-20T09:50:46;4.72;;;2.20;;
14766;SDS011;7475;53.558;9.970;2023-08-20T09:56:03;5.22;;;2.60;;
14766;SDS011;7475;53.558;9.970;2023-08-20T09:58:30;5.53;;;2.28;;
14766;SDS011;7475;53.558;9.970;2023-08-20T10:00:55;5.55;;;2.30;;
14766;SDS011;7475;53.558;9.970;2023-08-20T10:03:21;4.88;;;2.30;;
14766;SDS011;7475;53.558;9.970;2023-08-20T10:05:47;4.20;;;2.40;;
14766;SDS011;7475;53.558;9.970;2023-08-20T10:08:14;5.28;;;2.13;;
14766;SDS011;7475;53.558;9.970;2023-08-20T10:10:40;5.35;;;2.20;;
14766;SDS011;7475;53.558;9.970;2023-08-20T10:13:05;7.83;;;4.13;;
14766;SDS011;7475;53.558;9.970;2023-08-20T10:15:30;6.67;;;3.87;;
14766;SDS011;7475;53.558;9.970;2023-08-20T10:17:56;4.45;;;2.20;;
14766;SDS011;7475;53.558;9.970;2023-08-20T10:20:22;5.00;;;2.47;;
14766;SDS011;7475;53.558;9.970;2023-08-20T10:22:48;6.10;;;2.15;;
14766;SDS011;7475;53.558;9.970;2023-08-20T10:25:24;7.47;;;2.13;;
14766;SDS011;7475;53.558;9.970;2023-08-20T10:27:50;5.82;;;1.92;;
14766;SDS011;7475;53.558;9.970;2023-08-20T10:30:19;5.82;;;2.08;;
14766;SDS011;7475;53.558;9.970;2023-08-20T10:32:53;5.47;;;2.25;;
14766;SDS011;7475;53.558;9.970;2023-08-20T10:35:22;4.10;;;2.00;;
14766;SDS011;7475;53.558;9.970;2023-08-20T10:38:03;6.82;;;2.20;;
14766;SDS011;7475;53.558;9.970;2023-08-20T10:43:23;5.10;;;1.90;;
14766;SDS011;7475;53.558;9.970;2023-08-20T10:48:29;5.80;;;2.05;;
14766;SDS011;7475;53.558;9.970;2023-08-20T10:50:54;4.85;;;1.83;;
14766;SDS011;7475;53.558;9.970;2023-08-20T10:53:21;6.28;;;4.72;;
14766;SDS011;7475;53.558;9.970;2023-08-20T10:55:50;6.57;;;3.50;;
14766;SDS011;7475;53.558;9.970;2023-08-20T10:58:15;5.40;;;3.20;;
14766;SDS011;7475;53.558;9.970;2023-08-20T11:00:42;7.30;;;2.50;;
14766;SDS011;7475;53.558;9.970;2023-08-20T11:03:07;4.00;;;1.83;;
14766;SDS011;7475;53.558;9.970;2023-08-20T11:05:33;6.20;;;3.22;;
14766;SDS011;7475;53.558;9.970;2023-08-20T11:07:59;4.78;;;2.67;;
14766;SDS011;7475;53.558;9.970;2023-08-20T11:10:25;5.90;;;2.13;;
14766;SDS011;7475;53.558;9.970;2023-08-20T11:12:50;6.50;;;3.72;;
14766;SDS011;7475;53.558;9.970;2023-08-20T11:15:16;6.00;;;2.38;;
14766;SDS011;7475;53.558;9.970;2023-08-20T11:17:44;5.67;;;2.00;;
14766;SDS011;7475;53.558;9.970;2023-08-20T11:20:10;4.22;;;1.98;;
14766;SDS011;7475;53.558;9.970;2023-08-20T11:22:38;4.25;;;1.95;;
14766;SDS011;7475;53.558;9.970;2023-08-20T11:25:03;4.45;;;2.03;;
14766;SDS011;7475;53.558;9.970;2023-08-20T11:27:29;5.85;;;2.22;;
14766;SDS011;7475;53.558;9.970;2023-08-20T11:29:54;5.28;;;2.10;;
14766;SDS011;7475;53.558;9.970;2023-08-20T11:32:21;7.22;;;2.00;;
14766;SDS011;7475;53.558;9.970;2023-08-20T11:34:46;6.13;;;2.38;;
14766;SDS011;7475;53.558;9.970;2023-08-20T11:37:11;10.47;;;5.43;;
14766;SDS011;7475;53.558;9.970;2023-08-20T11:39:37;5.00;;;2.33;;
14766;SDS011;7475;53.558;9.970;2023-08-20T11:42:02;7.13;;;2.73;;
14766;SDS011;7475;53.558;9.970;2023-08-20T11:44:27;4.75;;;2.20;;
14766;SDS011;7475;53.558;9.970;2023-08-20T11:46:53;6.93;;;2.40;;
14766;SDS011;7475;53.558;9.970;2023-08-20T11:49:26;5.33;;;2.10;;
14766;SDS011;7475;53.558;9.970;2023-08-20T11:51:51;7.03;;;3.17;;
14766;SDS011;7475;53.558;9.970;2023-08-20T11:54:17;5.75;;;2.85;;
14766;SDS011;7475;53.558;9.970;2023-08-20T11:56:48;6.00;;;2.33;;
14766;SDS011;7475;53.558;9.970;2023-08-20T11:59:14;5.72;;;2.95;;
14766;SDS011;7475;53.558;9.970;2023-08-20T12:01:39;5.90;;;2.00;;
14766;SDS011;7475;53.558;9.970;2023-08-20T12:04:05;6.17;;;2.10;;
14766;SDS011;7475;53.558;9.970;2023-08-20T12:06:31;8.98;;;2.55;;
14766;SDS011;7475;53.558;9.970;2023-08-20T12:08:57;7.45;;;2.35;;
14766;SDS011;7475;53.558;9.970;2023-08-20T12:11:29;7.30;;;4.03;;
14766;SDS011;7475;53.558;9.970;2023-08-20T12:13:54;9.32;;;5.15;;
14766;SDS011;7475;53.558;9.970;2023-08-20T12:16:23;5.80;;;2.55;;
14766;SDS011;7475;53.558;9.970;2023-08-20T12:18:49;6.80;;;3.00;;
14766;SDS011;7475;53.558;9.970;2023-08-20T12:21:14;8.43;;;5.17;;
14766;SDS011;7475;53.558;9.970;2023-08-20T12:23:40;5.38;;;2.28;;
14766;SDS011;7475;53.558;9.970;2023-08-20T12:26:05;5.57;;;2.60;;
14766;SDS011;7475;53.558;9.970;2023-08-20T12:28:30;5.30;;;2.17;;
14766;SDS011;7475;53.558;9.970;2023-08-20T12:30:56;5.07;;;2.20;;
14766;SDS011;7475;53.558;9.970;2023-08-20T12:33:21;5.70;;;2.22;;
14766;SDS011;7475;53.558;9.970;2023-08-20T12:35:46;5.87;;;2.23;;
14766;SDS011;7475;53.558;9.970;2023-08-20T12:38:12;5.43;;;3.63;;
14766;SDS011;7475;53.558;9.970;2023-08-20T12:40:37;6.40;;;2.47;;
14766;SDS011;7475;53.558;9.970;2023-08-20T12:43:02;5.32;;;2.90;;
14766;SDS011;7475;53.558;9.970;2023-08-20T12:45:28;7.75;;;2.28;;
14766;SDS011;7475;53.558;9.970;2023-08-20T12:47:53;5.00;;;2.10;;
14766;SDS011;7475;53.558;9.970;2023-08-20T12:50:18;5.93;;;3.05;;
14766;SDS011;7475;53.558;9.970;2023-08-20T12:52:44;6.65;;;2.30;;
14766;SDS011;7475;53.558;9.970;2023-08-20T12:55:09;5.43;;;2.17;;
14766;SDS011;7475;53.558;9.970;2023-08-20T12:57:35;7.75;;;3.45;;
14766;SDS011;7475;53.558;9.970;2023-08-20T13:00:00;5.43;;;2.10;;
14766;SDS011;7475;53.558;9.970;2023-08-20T13:02:26;4.90;;;2.07;;
14766;SDS011;7475;53.558;9.970;2023-08-20T13:04:51;4.32;;;2.20;;
14766;SDS011;7475;53.558;9.970;2023-08-20T13:07:16;5.68;;;2.20;;
14766;SDS011;7475;53.558;9.970;2023-08-20T13:09:42;6.30;;;2.10;;
14766;SDS011;7475;53.558;9.970;2023-08-20T13:12:07;6.10;;;2.50;;
14766;SDS011;7475;53.558;9.970;2023-08-20T13:14:37;5.20;;;3.28;;
14766;SDS011;7475;53.558;9.970;2023-08-20T13:17:02;6.28;;;2.03;;
14766;SDS011;7475;53.558;9.970;2023-08-20T13:19:27;4.15;;;1.90;;
14766;SDS011;7475;53.558;9.970;2023-08-20T13:21:53;5.43;;;2.30;;
14766;SDS011;7475;53.558;9.970;2023-08-20T13:24:18;5.23;;;2.10;;
14766;SDS011;7475;53.558;9.970;2023-08-20T13:26:43;5.97;;;2.10;;
14766;SDS011;7475;53.558;9.970;2023-08-20T13:29:09;3.90;;;1.73;;
14766;SDS011;7475;53.558;9.970;2023-08-20T13:31:35;4.03;;;1.90;;
14766;SDS011;7475;53.558;9.970;2023-08-20T13:34:01;4.05;;;1.95;;
14766;SDS011;7475;53.558;9.970;2023-08-20T13:36:26;6.17;;;1.80;;
14766;SDS011;7475;53.558;9.970;2023-08-20T13:38:51;6.40;;;1.87;;
14766;SDS011;7475;53.558;9.970;2023-08-20T13:41:16;4.77;;;1.83;;
14766;SDS011;7475;53.558;9.970;2023-08-20T13:43:42;3.53;;;2.35;;
14766;SDS011;7475;53.558;9.970;2023-08-20T13:46:07;4.27;;;1.57;;
14766;SDS011;7475;53.558;9.970;2023-08-20T13:48:32;7.83;;;4.87;;
14766;SDS011;7475;53.558;9.970;2023-08-20T13:50:57;4.10;;;2.40;;
14766;SDS011;7475;53.558;9.970;2023-08-20T13:53:23;7.78;;;3.67;;
14766;SDS011;7475;53.558;9.970;2023-08-20T13:55:48;4.60;;;2.80;;
14766;SDS011;7475;53.558;9.970;2023-08-20T13:58:13;8.98;;;3.58;;
14766;SDS011;7475;53.558;9.970;2023-08-20T14:00:40;4.83;;;1.80;;
14766;SDS011;7475;53.558;9.970;2023-08-20T14:03:05;6.55;;;2.22;;
14766;SDS011;7475;53.558;9.970;2023-08-20T14:05:30;6.60;;;2.10;;
14766;SDS011;7475;53.558;9.970;2023-08-20T14:07:55;5.05;;;2.25;;
14766;SDS011;7475;53.558;9.970;2023-08-20T14:10:21;4.70;;;1.80;;
14766;SDS011;7475;53.558;9.970;2023-08-20T14:12:47;6.40;;;2.25;;
14766;SDS011;7475;53.558;9.970;2023-08-20T14:15:12;3.70;;;1.70;;
14766;SDS011;7475;53.558;9.970;2023-08-20T14:17:38;5.27;;;2.03;;
14766;SDS011;7475;53.558;9.970;2023-08-20T14:20:03;5.93;;;2.22;;
14766;SDS011;7475;53.558;9.970;2023-08-20T14:22:29;4.35;;;1.90;;
14766;SDS011;7475;53.558;9.970;2023-08-20T14:24:54;4.40;;;2.40;;
14766;SDS011;7475;53.558;9.970;2023-08-20T14:27:19;3.07;;;1.70;;
14766;SDS011;7475;53.558;9.970;2023-08-20T14:29:44;4.75;;;1.77;;
14766;SDS011;7475;53.558;9.970;2023-08-20T14:32:10;3.70;;;1.70;;
14766;SDS011;7475;53.558;9.970;2023-08-20T14:34:35;6.10;;;2.10;;
14766;SDS011;7475;53.558;9.970;2023-08-20T14:37:00;3.25;;;1.65;;
14766;SDS011;7475;53.558;9.970;2023-08-20T14:39:25;3.58;;;1.70;;
14766;SDS011;7475;53.558;9.970;2023-08-20T14:41:51;4.57;;;1.80;;
14766;SDS011;7475;53.558;9.970;2023-08-20T14:44:16;4.63;;;1.73;;
14766;SDS011;7475;53.558;9.970;2023-08-20T14:46:41;5.83;;;1.83;;
14766;SDS011;7475;53.558;9.970;2023-08-20T14:49:06;5.23;;;1.77;;
14766;SDS011;7475;53.558;9.970;2023-08-20T14:51:31;3.63;;;1.60;;
14766;SDS011;7475;53.558;9.970;2023-08-20T14:53:57;5.37;;;1.80;;